createdAt,value
2023-05-22T00:00:03.488Z,93.49
2023-05-22T00:01:03.487Z,92.54
2023-05-22T00:02:03.507Z,93.65
2023-05-22T00:03:03.569Z,93.14
2023-05-22T00:04:03.566Z,92.74
2023-05-22T00:05:03.619Z,92.74
2023-05-22T00:06:03.439Z,92.83
2023-05-22T00:07:03.437Z,92.13
2023-05-22T00:08:03.508Z,92.74
2023-05-22T00:09:03.405Z,92.54
2023-05-22T00:10:03.393Z,92.03
2023-05-22T00:11:03.396Z,90.62
2023-05-22T00:12:03.392Z,90.62
2023-05-22T00:13:03.351Z,90.92
2023-05-22T00:14:03.434Z,90.42
2023-05-22T00:15:03.332Z,90.82
2023-05-22T00:16:03.353Z,89.91
2023-05-22T00:17:03.361Z,90.17
2023-05-22T00:18:03.381Z,89.97
2023-05-22T00:19:03.356Z,89.57
2023-05-22T00:20:03.290Z,90.17
2023-05-22T00:21:03.266Z,90.58
2023-05-22T00:22:03.263Z,91.18
2023-05-22T00:23:03.286Z,89.67
2023-05-22T00:24:03.231Z,91.08
2023-05-22T00:25:03.228Z,91.49
2023-05-22T00:26:03.238Z,92.03
2023-05-22T00:27:03.220Z,91.93
2023-05-22T00:28:03.215Z,92.33
2023-05-22T00:29:03.188Z,92.54
2023-05-22T00:30:03.182Z,92.63
2023-05-22T00:31:03.178Z,93.85
2023-05-22T00:32:03.154Z,93.65
2023-05-22T00:33:03.172Z,94.25
2023-05-22T00:34:03.256Z,94.55
2023-05-22T00:35:03.110Z,95.06
2023-05-22T00:36:03.132Z,94.65
2023-05-22T00:37:03.098Z,94.80
2023-05-22T00:38:03.100Z,95.00
2023-05-22T00:39:03.093Z,94.29
2023-05-22T00:40:03.077Z,93.18
2023-05-22T00:41:03.051Z,93.89
2023-05-22T00:42:03.052Z,93.79
2023-05-22T00:43:03.030Z,93.79
2023-05-22T00:44:03.039Z,94.39
2023-05-22T00:45:03.003Z,93.79
2023-05-22T00:46:03.039Z,93.69
2023-05-22T00:47:03.022Z,93.69
2023-05-22T00:48:03.102Z,93.99
2023-05-22T00:49:02.987Z,94.29
2023-05-22T00:50:02.970Z,95.20
2023-05-22T00:51:02.948Z,95.00
2023-05-22T00:52:02.942Z,94.90
2023-05-22T00:53:02.923Z,95.30
2023-05-22T00:54:02.939Z,95.61
2023-05-22T00:55:02.919Z,95.90
2023-05-22T00:56:02.901Z,96.31
2023-05-22T00:57:02.877Z,96.66
2023-05-22T00:58:02.883Z,96.96
2023-05-22T00:59:02.853Z,97.16
2023-05-22T01:00:02.874Z,97.16
2023-05-22T01:01:02.864Z,97.06
2023-05-22T01:02:02.933Z,97.16
2023-05-22T01:03:02.859Z,97.16
2023-05-22T01:04:02.934Z,96.86
2023-05-22T01:05:02.826Z,96.56
2023-05-22T01:06:02.792Z,96.66
2023-05-22T01:07:02.792Z,96.66
2023-05-22T01:08:02.765Z,96.86
2023-05-22T01:09:02.759Z,96.80
2023-05-22T01:10:02.768Z,96.50
2023-05-22T01:11:02.720Z,96.10
2023-05-22T01:12:02.719Z,95.90
2023-05-22T01:13:02.703Z,95.59
2023-05-22T01:14:02.696Z,95.79
2023-05-22T01:15:02.741Z,96.00
2023-05-22T01:16:02.742Z,96.20
2023-05-22T01:17:02.672Z,96.10
2023-05-22T01:18:02.693Z,95.90
2023-05-22T01:19:02.672Z,96.00
2023-05-22T01:20:02.641Z,96.30
2023-05-22T01:21:02.633Z,96.70
2023-05-22T01:22:02.619Z,96.91
2023-05-22T01:23:02.617Z,96.91
2023-05-22T01:24:02.587Z,97.05
2023-05-22T01:25:02.591Z,97.25
2023-05-22T01:26:02.587Z,96.95
2023-05-22T01:27:02.792Z,96.95
2023-05-22T01:28:02.666Z,96.95
2023-05-22T01:29:02.535Z,96.95
2023-05-22T01:30:02.532Z,96.25
2023-05-22T01:31:02.514Z,96.25
2023-05-22T01:32:02.520Z,95.43
2023-05-22T01:33:02.561Z,96.04
2023-05-22T01:34:02.572Z,94.83
2023-05-22T01:35:02.513Z,94.43
2023-05-22T01:36:02.454Z,93.41
2023-05-22T01:37:02.466Z,93.17
2023-05-22T01:38:02.454Z,92.97
2023-05-22T01:39:02.413Z,91.86
2023-05-22T01:40:02.445Z,91.46
2023-05-22T01:41:02.413Z,91.66
2023-05-22T01:42:02.398Z,91.55
2023-05-22T01:43:02.395Z,92.16
2023-05-22T01:44:02.410Z,91.86
2023-05-22T01:45:02.420Z,91.86
2023-05-22T01:46:02.387Z,91.55
2023-05-22T01:47:02.320Z,91.96
2023-05-22T01:48:02.437Z,91.76
2023-05-22T01:49:02.314Z,91.76
2023-05-22T01:50:02.319Z,91.86
2023-05-22T01:51:02.309Z,91.76
2023-05-22T01:52:02.289Z,91.55
2023-05-22T01:53:02.274Z,91.96
2023-05-22T01:54:02.276Z,91.86
2023-05-22T01:55:02.271Z,92.36
2023-05-22T01:56:02.281Z,92.26
2023-05-22T01:57:02.254Z,92.77
2023-05-22T01:58:02.254Z,92.97
2023-05-22T01:59:02.238Z,92.66
2023-05-22T02:00:02.200Z,92.86
2023-05-22T02:01:02.227Z,92.77
2023-05-22T02:02:02.242Z,92.97
2023-05-22T02:03:02.238Z,93.37
2023-05-22T02:04:02.167Z,92.97
2023-05-22T02:05:02.156Z,93.07
2023-05-22T02:06:02.138Z,93.37
2023-05-22T02:07:02.145Z,93.07
2023-05-22T02:08:02.149Z,92.97
2023-05-22T02:09:02.147Z,93.17
2023-05-22T02:10:02.102Z,93.07
2023-05-22T02:11:02.097Z,92.57
2023-05-22T02:12:02.074Z,93.07
2023-05-22T02:13:02.076Z,93.17
2023-05-22T02:14:02.079Z,93.37
2023-05-22T02:15:02.035Z,93.27
2023-05-22T02:16:02.101Z,93.57
2023-05-22T02:17:02.020Z,93.37
2023-05-22T02:18:02.198Z,93.37
2023-05-22T02:19:02.022Z,92.86
2023-05-22T02:20:01.993Z,93.37
2023-05-22T02:21:01.977Z,93.77
2023-05-22T02:22:01.993Z,93.77
2023-05-22T02:23:01.939Z,93.68
2023-05-22T02:24:01.944Z,93.88
2023-05-22T02:25:01.933Z,94.38
2023-05-22T02:26:01.942Z,93.17
2023-05-22T02:27:01.899Z,92.97
2023-05-22T02:28:01.920Z,92.57
2023-05-22T02:29:01.886Z,92.66
2023-05-22T02:30:01.950Z,93.07
2023-05-22T02:31:01.965Z,92.97
2023-05-22T02:32:01.860Z,92.77
2023-05-22T02:33:01.890Z,92.97
2023-05-22T02:34:01.883Z,93.17
2023-05-22T02:35:01.808Z,93.48
2023-05-22T02:36:01.812Z,93.07
2023-05-22T02:37:01.792Z,92.97
2023-05-22T02:38:01.802Z,93.37
2023-05-22T02:39:01.766Z,93.37
2023-05-22T02:40:01.943Z,93.17
2023-05-22T02:41:01.799Z,93.27
2023-05-22T02:42:01.747Z,93.27
2023-05-22T02:43:01.732Z,93.27
2023-05-22T02:44:01.748Z,93.17
2023-05-22T02:45:01.724Z,93.07
2023-05-22T02:46:01.793Z,93.48
2023-05-22T02:47:01.786Z,92.50
2023-05-22T02:48:01.709Z,93.01
2023-05-22T02:49:01.672Z,93.12
2023-05-22T02:50:02.667Z,93.12
2023-05-22T02:51:01.645Z,93.01
2023-05-22T02:52:01.649Z,92.61
2023-05-22T02:53:01.648Z,92.71
2023-05-22T02:54:01.624Z,92.81
2023-05-22T02:55:01.593Z,93.12
2023-05-22T02:56:01.649Z,93.01
2023-05-22T02:57:01.550Z,93.12
2023-05-22T02:58:01.533Z,93.32
2023-05-22T02:59:01.557Z,93.16
2023-05-22T03:00:01.584Z,93.56
2023-05-22T03:01:01.604Z,93.96
2023-05-22T03:02:01.589Z,93.96
2023-05-22T03:03:01.570Z,94.27
2023-05-22T03:04:01.543Z,94.47
2023-05-22T03:05:01.508Z,94.47
2023-05-22T03:06:01.437Z,94.57
2023-05-22T03:07:01.453Z,95.02
2023-05-22T03:08:01.409Z,95.22
2023-05-22T03:09:01.395Z,95.32
2023-05-22T03:10:01.408Z,95.63
2023-05-22T03:11:01.374Z,95.53
2023-05-22T03:12:01.369Z,95.12
2023-05-22T03:13:01.343Z,94.92
2023-05-22T03:14:01.347Z,94.92
2023-05-22T03:15:01.347Z,94.62
2023-05-22T03:16:01.341Z,95.12
2023-05-22T03:17:01.313Z,94.92
2023-05-22T03:18:01.364Z,95.22
2023-05-22T03:19:01.360Z,95.27
2023-05-22T03:20:01.294Z,95.07
2023-05-22T03:21:01.282Z,95.27
2023-05-22T03:22:01.261Z,95.27
2023-05-22T03:23:01.236Z,95.27
2023-05-22T03:24:01.242Z,95.47
2023-05-22T03:25:01.227Z,95.37
2023-05-22T03:26:01.229Z,95.47
2023-05-22T03:27:01.221Z,95.47
2023-05-22T03:28:01.196Z,95.98
2023-05-22T03:29:01.220Z,95.87
2023-05-22T03:30:01.182Z,95.47
2023-05-22T03:31:01.176Z,95.57
2023-05-22T03:32:01.159Z,95.67
2023-05-22T03:33:01.190Z,95.57
2023-05-22T03:34:01.322Z,95.98
2023-05-22T03:35:01.141Z,95.98
2023-05-22T03:36:01.136Z,95.87
2023-05-22T03:37:01.114Z,95.98
2023-05-22T03:38:01.100Z,96.18
2023-05-22T03:39:01.070Z,96.28
2023-05-22T03:40:01.066Z,96.48
2023-05-22T03:41:01.081Z,96.53
2023-05-22T03:42:01.033Z,96.33
2023-05-22T03:43:01.042Z,96.22
2023-05-22T03:44:01.021Z,95.92
2023-05-22T03:45:01.014Z,96.33
2023-05-22T03:46:01.072Z,96.33
2023-05-22T03:47:01.022Z,96.33
2023-05-22T03:48:01.025Z,96.42
2023-05-22T03:49:00.987Z,96.33
2023-05-22T03:50:00.942Z,96.42
2023-05-22T03:51:00.954Z,96.42
2023-05-22T03:52:00.949Z,96.63
2023-05-22T03:54:05.915Z,96.93
2023-05-22T03:55:06.880Z,96.93
2023-05-22T03:56:06.856Z,96.93
2023-05-22T03:57:06.891Z,97.08
2023-05-22T03:58:06.838Z,97.69
2023-05-22T03:59:06.838Z,97.79
2023-05-22T04:00:06.852Z,97.69
2023-05-22T04:01:06.840Z,97.79
2023-05-22T04:02:06.836Z,97.99
2023-05-22T04:03:06.916Z,98.09
2023-05-22T04:04:06.797Z,97.89
2023-05-22T04:05:06.850Z,97.79
2023-05-22T04:06:06.794Z,97.58
2023-05-22T04:07:06.759Z,97.58
2023-05-22T04:08:06.726Z,97.89
2023-05-22T04:09:06.735Z,97.99
2023-05-22T04:10:06.744Z,98.29
2023-05-22T04:11:06.744Z,98.50
2023-05-22T04:12:06.758Z,98.39
2023-05-22T04:13:06.718Z,98.39
2023-05-22T04:14:06.772Z,98.29
2023-05-22T04:15:06.664Z,98.19
2023-05-22T04:16:06.690Z,98.19
2023-05-22T04:17:06.675Z,98.09
2023-05-22T04:18:06.692Z,97.89
2023-05-22T04:19:06.630Z,97.89
2023-05-22T04:20:06.653Z,97.79
2023-05-22T04:21:06.689Z,97.89
2023-05-22T04:22:06.579Z,97.89
2023-05-22T04:23:06.578Z,97.79
2023-05-22T04:24:06.609Z,97.89
2023-05-22T04:25:06.575Z,97.79
2023-05-22T04:26:06.549Z,97.74
2023-05-22T04:27:06.551Z,97.74
2023-05-22T04:28:06.537Z,97.74
2023-05-22T04:29:06.540Z,97.64
2023-05-22T04:30:06.548Z,97.44
2023-05-22T04:31:06.803Z,97.34
2023-05-22T04:32:06.479Z,97.34
2023-05-22T04:33:06.511Z,97.85
2023-05-22T04:34:06.484Z,97.94
2023-05-22T04:35:06.495Z,97.94
2023-05-22T04:36:06.445Z,97.69
2023-05-22T04:37:06.480Z,97.49
2023-05-22T04:38:06.443Z,97.29
2023-05-22T04:39:06.408Z,97.19
2023-05-22T04:40:06.421Z,97.19
2023-05-22T04:41:06.458Z,97.19
2023-05-22T04:42:06.379Z,96.98
2023-05-22T04:43:06.374Z,96.89
2023-05-22T04:44:06.408Z,97.09
2023-05-22T04:45:06.365Z,97.29
2023-05-22T04:46:06.356Z,97.45
2023-05-22T04:47:07.966Z,97.45
2023-05-22T04:48:06.374Z,97.55
2023-05-22T04:49:06.331Z,97.85
2023-05-22T04:50:06.291Z,97.75
2023-05-22T04:51:06.313Z,97.75
2023-05-22T04:52:06.287Z,97.75
2023-05-22T04:53:06.312Z,97.65
2023-05-22T04:54:06.270Z,97.45
2023-05-22T04:55:06.347Z,97.34
2023-05-22T04:56:06.263Z,97.25
2023-05-22T04:57:06.235Z,97.05
2023-05-22T04:58:06.210Z,96.74
2023-05-22T04:59:06.231Z,96.44
2023-05-22T05:00:06.212Z,96.34
2023-05-22T05:01:06.280Z,96.34
2023-05-22T05:02:06.181Z,96.19
2023-05-22T05:03:06.274Z,96.29
2023-05-22T05:04:06.420Z,96.09
2023-05-22T05:05:06.169Z,96.39
2023-05-22T05:06:06.120Z,96.49
2023-05-22T05:07:06.153Z,96.69
2023-05-22T05:08:06.134Z,96.49
2023-05-22T05:09:06.118Z,96.49
2023-05-22T05:10:06.113Z,96.80
2023-05-22T05:11:06.102Z,96.89
2023-05-22T05:12:06.083Z,97.00
2023-05-22T05:13:06.080Z,96.95
2023-05-22T05:14:06.057Z,96.75
2023-05-22T05:15:06.052Z,96.85
2023-05-22T05:16:06.075Z,96.85
2023-05-22T05:17:06.028Z,97.25
2023-05-22T05:18:06.132Z,97.36
2023-05-22T05:19:06.020Z,97.05
2023-05-22T05:20:05.981Z,96.85
2023-05-22T05:21:05.987Z,96.45
2023-05-22T05:22:05.965Z,96.00
2023-05-22T05:23:05.960Z,95.70
2023-05-22T05:24:05.951Z,95.29
2023-05-22T05:25:05.954Z,95.09
2023-05-22T05:26:05.931Z,95.09
2023-05-22T05:27:05.915Z,95.04
2023-05-22T05:28:05.891Z,94.74
2023-05-22T05:29:05.903Z,94.84
2023-05-22T05:30:05.893Z,94.29
2023-05-22T05:31:05.884Z,93.49
2023-05-22T05:32:05.896Z,92.47
2023-05-22T05:33:05.912Z,92.27
2023-05-22T05:34:05.831Z,92.54
2023-05-22T05:35:05.832Z,91.93
2023-05-22T05:36:05.823Z,91.73
2023-05-22T05:37:05.824Z,91.63
2023-05-22T05:38:05.816Z,90.88
2023-05-22T05:39:05.803Z,89.77
2023-05-22T05:40:05.789Z,90.37
2023-05-22T05:41:05.773Z,90.23
2023-05-22T05:42:05.756Z,89.93
2023-05-22T05:43:07.325Z,90.29
2023-05-22T05:44:05.764Z,89.39
2023-05-22T05:45:05.720Z,88.48
2023-05-22T05:46:05.744Z,86.72
2023-05-22T05:47:05.705Z,87.13
2023-05-22T05:48:05.725Z,86.32
2023-05-22T05:49:05.765Z,86.12
2023-05-22T05:50:05.777Z,85.17
2023-05-22T05:51:05.698Z,84.97
2023-05-22T05:52:05.661Z,86.18
2023-05-22T05:53:05.637Z,86.65
2023-05-22T05:54:05.652Z,86.24
2023-05-22T05:55:05.622Z,85.64
2023-05-22T05:56:05.637Z,84.99
2023-05-22T05:57:05.592Z,84.69
2023-05-22T05:58:05.581Z,85.10
2023-05-22T05:59:05.589Z,85.36
2023-05-22T06:00:05.582Z,84.55
2023-05-22T06:01:05.559Z,84.05
2023-05-22T06:02:05.584Z,82.54
2023-05-22T06:03:05.598Z,83.65
2023-05-22T06:04:05.619Z,83.65
2023-05-22T06:05:05.593Z,83.15
2023-05-22T06:06:05.596Z,84.31
2023-05-22T06:07:05.513Z,83.81
2023-05-22T06:08:05.511Z,83.81
2023-05-22T06:09:05.502Z,80.60
2023-05-22T06:10:05.471Z,82.37
2023-05-22T06:11:05.469Z,81.67
2023-05-22T06:12:05.470Z,81.06
2023-05-22T06:13:05.465Z,79.96
2023-05-22T06:14:05.460Z,80.46
2023-05-22T06:15:05.441Z,79.46
2023-05-22T06:16:06.703Z,79.25
2023-05-22T06:17:05.383Z,79.25
2023-05-22T06:18:05.542Z,79.52
2023-05-22T06:19:05.426Z,79.92
2023-05-22T06:20:05.378Z,78.81
2023-05-22T06:21:05.351Z,78.11
2023-05-22T06:22:05.345Z,78.92
2023-05-22T06:23:05.321Z,79.42
2023-05-22T06:24:05.357Z,77.91
2023-05-22T06:25:05.356Z,77.78
2023-05-22T06:26:05.334Z,79.08
2023-05-22T06:27:05.287Z,78.14
2023-05-22T06:28:05.279Z,77.14
2023-05-22T06:29:05.264Z,76.90
2023-05-22T06:30:05.287Z,78.17
2023-05-22T06:31:05.350Z,75.50
2023-05-22T06:32:05.304Z,74.90
2023-05-22T06:33:05.352Z,75.87
2023-05-22T06:34:05.281Z,78.27
2023-05-22T06:35:05.217Z,78.73
2023-05-22T06:36:05.207Z,77.19
2023-05-22T06:37:05.186Z,76.39
2023-05-22T06:38:05.245Z,75.46
2023-05-22T06:39:05.151Z,72.96
2023-05-22T06:40:05.210Z,73.46
2023-05-22T06:41:05.123Z,72.26
2023-05-22T06:42:05.136Z,73.46
2023-05-22T06:43:05.146Z,73.75
2023-05-22T06:44:05.113Z,74.85
2023-05-22T06:45:05.110Z,73.22
2023-05-22T06:46:05.116Z,73.12
2023-05-22T06:47:05.073Z,73.82
2023-05-22T06:48:05.083Z,70.72
2023-05-22T06:49:05.116Z,71.33
2023-05-22T06:50:05.056Z,72.02
2023-05-22T06:51:05.029Z,73.42
2023-05-22T06:52:05.542Z,70.83
2023-05-22T06:53:04.991Z,72.02
2023-05-22T06:54:05.044Z,74.22
2023-05-22T06:55:04.989Z,73.69
2023-05-22T06:56:04.969Z,71.49
2023-05-22T06:57:04.967Z,73.28
2023-05-22T06:58:05.010Z,73.72
2023-05-22T06:59:06.376Z,74.02
2023-05-22T07:00:05.028Z,71.72
2023-05-22T07:01:04.959Z,73.22
2023-05-22T07:02:04.947Z,72.32
2023-05-22T07:03:04.944Z,71.72
2023-05-22T07:04:04.937Z,71.72
2023-05-22T07:05:04.924Z,72.52
2023-05-22T07:06:04.926Z,72.29
2023-05-22T07:07:04.872Z,73.49
2023-05-22T07:08:04.879Z,72.19
2023-05-22T07:09:04.861Z,72.59
2023-05-22T07:10:04.861Z,72.13
2023-05-22T07:11:04.862Z,73.52
2023-05-22T07:12:04.914Z,73.62
2023-05-22T07:13:04.804Z,74.02
2023-05-22T07:14:04.806Z,72.82
2023-05-22T07:15:04.782Z,72.72
2023-05-22T07:16:04.888Z,73.92
2023-05-22T07:17:04.807Z,72.82
2023-05-22T07:18:04.843Z,73.88
2023-05-22T07:19:04.777Z,74.29
2023-05-22T07:20:04.764Z,74.15
2023-05-22T07:21:04.755Z,73.95
2023-05-22T07:22:04.746Z,70.89
2023-05-22T07:23:04.730Z,72.13
2023-05-22T07:24:04.696Z,73.82
2023-05-22T07:25:04.672Z,73.52
2023-05-22T07:26:04.731Z,74.52
2023-05-22T07:27:04.662Z,73.62
2023-05-22T07:28:04.646Z,74.32
2023-05-22T07:29:04.644Z,72.62
2023-05-22T07:30:04.653Z,70.53
2023-05-22T07:31:04.639Z,71.52
2023-05-22T07:32:04.632Z,71.52
2023-05-22T07:33:04.620Z,71.72
2023-05-22T07:34:04.603Z,72.13
2023-05-22T07:35:04.573Z,72.76
2023-05-22T07:36:04.615Z,73.36
2023-05-22T07:37:04.567Z,72.66
2023-05-22T07:38:04.550Z,71.06
2023-05-22T07:39:04.529Z,71.06
2023-05-22T07:40:04.526Z,71.19
2023-05-22T07:41:04.500Z,71.99
2023-05-22T07:42:04.543Z,71.59
2023-05-22T07:43:04.503Z,71.89
2023-05-22T07:44:04.479Z,73.29
2023-05-22T07:45:04.480Z,71.49
2023-05-22T07:46:04.533Z,73.16
2023-05-22T07:47:04.489Z,73.46
2023-05-22T07:48:04.531Z,74.42
2023-05-22T07:49:04.483Z,72.82
2023-05-22T07:50:04.627Z,71.99
2023-05-22T07:51:04.410Z,74.08
2023-05-22T07:52:04.457Z,73.19
2023-05-22T07:53:04.397Z,70.29
2023-05-22T07:54:04.443Z,70.56
2023-05-22T07:55:04.372Z,71.72
2023-05-22T07:56:04.354Z,72.02
2023-05-22T07:57:04.334Z,70.39
2023-05-22T07:58:04.378Z,68.70
2023-05-22T07:59:04.322Z,69.09
2023-05-22T08:00:04.355Z,69.09
2023-05-22T08:01:04.560Z,68.40
2023-05-22T08:02:04.304Z,69.59
2023-05-22T08:03:04.512Z,69.92
2023-05-22T08:04:04.466Z,69.02
2023-05-22T08:05:04.311Z,70.49
2023-05-22T08:06:04.280Z,68.93
2023-05-22T08:07:04.250Z,70.03
2023-05-22T08:08:04.247Z,70.62
2023-05-22T08:09:04.203Z,70.16
2023-05-22T08:10:04.213Z,72.05
2023-05-22T08:11:04.887Z,70.95
2023-05-22T08:12:04.201Z,71.06
2023-05-22T08:13:04.194Z,70.23
2023-05-22T08:14:04.175Z,69.02
2023-05-22T08:15:04.157Z,68.60
2023-05-22T08:16:04.157Z,66.43
2023-05-22T08:17:04.165Z,67.20
2023-05-22T08:18:04.147Z,68.56
2023-05-22T08:19:04.212Z,69.99
2023-05-22T08:20:04.176Z,70.39
2023-05-22T08:21:04.148Z,69.99
2023-05-22T08:22:04.102Z,71.78
2023-05-22T08:23:04.064Z,70.95
2023-05-22T08:24:04.064Z,70.75
2023-05-22T08:25:04.041Z,69.82
2023-05-22T08:26:04.089Z,70.39
2023-05-22T08:27:04.049Z,68.10
2023-05-22T08:28:04.068Z,68.70
2023-05-22T08:29:04.093Z,69.49
2023-05-22T08:30:04.043Z,68.46
2023-05-22T08:31:04.186Z,70.56
2023-05-22T08:32:04.171Z,69.20
2023-05-22T08:33:04.022Z,69.20
2023-05-22T08:34:03.994Z,69.09
2023-05-22T08:35:03.962Z,69.09
2023-05-22T08:36:04.001Z,71.19
2023-05-22T08:37:03.969Z,70.56
2023-05-22T08:38:03.935Z,68.50
2023-05-22T08:39:03.916Z,69.39
2023-05-22T08:40:03.941Z,69.79
2023-05-22T08:41:03.882Z,70.52
2023-05-22T08:42:03.911Z,68.53
2023-05-22T08:43:03.872Z,70.89
2023-05-22T08:44:03.976Z,69.76
2023-05-22T08:45:03.842Z,68.46
2023-05-22T08:46:03.831Z,67.90
2023-05-22T08:47:03.889Z,69.99
2023-05-22T08:48:03.831Z,69.49
2023-05-22T08:49:03.824Z,71.09
2023-05-22T08:50:03.794Z,69.09
2023-05-22T08:51:03.778Z,68.50
2023-05-22T08:52:03.874Z,68.86
2023-05-22T08:53:03.833Z,68.56
2023-05-22T08:54:03.967Z,68.43
2023-05-22T08:55:03.788Z,68.66
2023-05-22T08:56:03.792Z,68.66
2023-05-22T08:57:03.701Z,68.66
2023-05-22T08:58:03.730Z,68.04
2023-05-22T08:59:03.688Z,67.14
2023-05-22T09:00:03.751Z,67.24
2023-05-22T09:01:03.711Z,67.17
2023-05-22T09:02:04.423Z,69.82
2023-05-22T09:03:03.739Z,68.13
2023-05-22T09:04:03.692Z,67.74
2023-05-22T09:05:03.628Z,67.24
2023-05-22T09:06:03.648Z,67.54
2023-05-22T09:07:03.671Z,67.74
2023-05-22T09:08:16.031Z,66.24
2023-05-22T09:09:03.693Z,68.56
2023-05-22T09:10:03.649Z,69.96
2023-05-22T09:11:03.587Z,68.63
2023-05-22T09:12:03.564Z,66.87
2023-05-22T09:13:03.563Z,68.23
2023-05-22T09:14:03.599Z,67.60
2023-05-22T09:15:03.525Z,67.40
2023-05-22T09:16:03.534Z,65.05
2023-05-22T09:17:03.523Z,66.05
2023-05-22T09:18:03.570Z,70.78
2023-05-22T09:19:03.562Z,67.00
2023-05-22T09:20:03.484Z,66.11
2023-05-22T09:21:04.931Z,66.31
2023-05-22T09:22:03.464Z,67.11
2023-05-22T09:23:03.455Z,66.61
2023-05-22T09:24:03.504Z,66.21
2023-05-22T09:25:03.657Z,66.67
2023-05-22T09:26:03.437Z,65.68
2023-05-22T09:27:03.481Z,66.18
2023-05-22T09:28:03.400Z,65.68
2023-05-22T09:29:03.410Z,65.68
2023-05-22T09:30:03.511Z,65.98
2023-05-22T09:31:04.513Z,65.98
2023-05-22T09:32:03.364Z,65.78
2023-05-22T09:33:03.413Z,66.58
2023-05-22T09:34:03.372Z,65.98
2023-05-22T09:35:03.342Z,64.72
2023-05-22T09:36:03.324Z,66.21
2023-05-22T09:37:03.367Z,65.52
2023-05-22T09:38:03.305Z,67.18
2023-05-22T09:39:03.304Z,66.18
2023-05-22T09:40:03.400Z,65.39
2023-05-22T09:41:03.325Z,66.35
2023-05-22T09:42:03.265Z,66.74
2023-05-22T09:43:03.252Z,63.07
2023-05-22T09:44:03.265Z,63.37
2023-05-22T09:45:03.330Z,64.29
2023-05-22T09:46:03.316Z,64.06
2023-05-22T09:47:03.222Z,64.89
2023-05-22T09:48:03.441Z,65.78
2023-05-22T09:49:03.185Z,65.09
2023-05-22T09:50:03.273Z,64.29
2023-05-22T09:51:03.194Z,66.88
2023-05-22T09:52:03.174Z,65.06
2023-05-22T09:53:03.188Z,63.93
2023-05-22T09:54:03.160Z,63.83
2023-05-22T09:55:09.180Z,65.92
2023-05-22T09:56:03.126Z,62.84
2023-05-22T09:57:03.109Z,63.73
2023-05-22T09:58:03.170Z,64.16
2023-05-22T09:59:03.102Z,64.83
2023-05-22T10:00:03.106Z,64.20
2023-05-22T10:01:03.083Z,66.25
2023-05-22T10:02:03.280Z,64.27
2023-05-22T10:03:03.198Z,64.76
2023-05-22T10:04:03.489Z,64.23
2023-05-22T10:05:03.121Z,63.21
2023-05-22T10:06:03.063Z,64.99
2023-05-22T10:07:03.022Z,64.76
2023-05-22T10:08:02.988Z,64.07
2023-05-22T10:09:03.027Z,64.73
2023-05-22T10:10:03.060Z,62.78
2023-05-22T10:11:03.052Z,61.89
2023-05-22T10:12:02.955Z,64.67
2023-05-22T10:13:03.094Z,64.17
2023-05-22T10:14:02.965Z,62.81
2023-05-22T10:15:02.949Z,64.56
2023-05-22T10:16:03.513Z,67.31
2023-05-22T10:17:02.930Z,64.83
2023-05-22T10:18:02.935Z,63.42
2023-05-22T10:19:02.939Z,61.96
2023-05-22T10:20:02.876Z,64.34
2023-05-22T10:21:02.890Z,66.78
2023-05-22T10:22:02.860Z,62.52
2023-05-22T10:23:02.863Z,62.02
2023-05-22T10:24:02.865Z,62.69
2023-05-22T10:25:03.065Z,60.41
2023-05-22T10:26:02.880Z,60.11
2023-05-22T10:27:02.874Z,61.37
2023-05-22T10:28:02.830Z,59.89
2023-05-22T10:29:02.797Z,60.58
2023-05-22T10:30:02.787Z,61.83
2023-05-22T10:31:02.895Z,60.55
2023-05-22T10:32:02.874Z,60.45
2023-05-22T10:33:02.818Z,59.79
2023-05-22T10:34:02.800Z,61.07
2023-05-22T10:35:02.887Z,61.21
2023-05-22T10:36:02.737Z,59.92
2023-05-22T10:37:13.023Z,61.53
2023-05-22T10:38:02.697Z,60.91
2023-05-22T10:39:02.689Z,60.11
2023-05-22T10:40:02.690Z,61.67
2023-05-22T10:41:02.687Z,59.30
2023-05-22T10:42:02.641Z,60.82
2023-05-22T10:43:02.647Z,58.45
2023-05-22T10:44:02.636Z,61.24
2023-05-22T10:45:02.654Z,62.99
2023-05-22T10:46:02.671Z,58.05
2023-05-22T10:47:02.622Z,58.12
2023-05-22T10:48:02.604Z,58.61
2023-05-22T10:49:02.578Z,56.76
2023-05-22T10:50:02.568Z,58.45
2023-05-22T10:51:02.592Z,58.81
2023-05-22T10:52:02.650Z,58.15
2023-05-22T10:53:02.578Z,57.56
2023-05-22T10:54:02.643Z,61.98
2023-05-22T10:55:02.625Z,58.98
2023-05-22T10:56:02.580Z,58.00
2023-05-22T10:57:02.577Z,56.38
2023-05-22T10:58:04.999Z,54.51
2023-05-22T10:59:02.493Z,54.80
2023-05-22T11:00:02.459Z,58.26
2023-05-22T11:01:02.491Z,55.20
2023-05-22T11:02:02.461Z,56.36
2023-05-22T11:03:09.987Z,57.93
2023-05-22T11:04:02.425Z,57.15
2023-05-22T11:05:02.569Z,54.61
2023-05-22T11:06:02.412Z,55.60
2023-05-22T11:07:02.428Z,56.19
2023-05-22T11:08:02.398Z,54.21
2023-05-22T11:09:02.387Z,56.29
2023-05-22T11:10:02.395Z,57.12
2023-05-22T11:11:02.532Z,55.51
2023-05-22T11:12:02.340Z,52.98
2023-05-22T11:13:02.369Z,56.18
2023-05-22T11:14:02.360Z,52.06
2023-05-22T11:15:02.587Z,53.91
2023-05-22T11:16:02.303Z,52.70
2023-05-22T11:17:02.334Z,52.95
2023-05-22T11:18:02.335Z,52.39
2023-05-22T11:19:10.480Z,51.42
2023-05-22T11:20:02.472Z,54.19
2023-05-22T11:21:02.272Z,53.30
2023-05-22T11:22:02.312Z,54.09
2023-05-22T11:23:02.262Z,53.79
2023-05-22T11:24:02.254Z,52.63
2023-05-22T11:25:02.234Z,52.53
2023-05-22T11:26:02.245Z,52.83
2023-05-22T11:27:02.361Z,54.09
2023-05-22T11:28:02.215Z,52.58
2023-05-22T11:29:02.437Z,58.37
2023-05-22T11:30:02.170Z,52.61
2023-05-22T11:31:02.265Z,51.03
2023-05-22T11:32:02.159Z,51.52
2023-05-22T11:33:02.172Z,53.39
2023-05-22T11:34:02.185Z,54.80
2023-05-22T11:35:02.126Z,55.19
2023-05-22T11:36:02.171Z,53.66
2023-05-22T11:37:02.108Z,51.89
2023-05-22T11:38:02.121Z,50.85
2023-05-22T11:39:02.105Z,53.25
2023-05-22T11:40:02.061Z,52.41
2023-05-22T11:41:02.079Z,54.71
2023-05-22T11:42:02.074Z,56.88
2023-05-22T11:43:02.066Z,53.42
2023-05-22T11:44:02.049Z,51.89
2023-05-22T11:45:02.031Z,53.32
2023-05-22T11:46:02.101Z,52.40
2023-05-22T11:47:02.134Z,50.49
2023-05-22T11:48:02.078Z,51.10
2023-05-22T11:49:02.013Z,54.03
2023-05-22T11:50:01.987Z,54.36
2023-05-22T11:51:01.970Z,55.96
2023-05-22T11:52:02.023Z,54.02
2023-05-22T11:53:01.997Z,54.83
2023-05-22T11:54:02.073Z,56.14
2023-05-22T11:55:02.089Z,55.75
2023-05-22T11:56:01.930Z,55.72
2023-05-22T11:57:01.906Z,55.66
2023-05-22T11:58:01.896Z,53.77
2023-05-22T11:59:01.890Z,53.25
2023-05-22T12:00:02.086Z,52.01
2023-05-22T12:01:01.893Z,53.54
2023-05-22T12:02:01.840Z,50.61
2023-05-22T12:03:01.945Z,49.01
2023-05-22T12:04:01.901Z,50.49
2023-05-22T12:05:01.832Z,50.39
2023-05-22T12:06:01.944Z,50.26
2023-05-22T12:07:01.812Z,50.61
2023-05-22T12:08:01.782Z,50.76
2023-05-22T12:09:01.869Z,47.77
2023-05-22T12:10:01.835Z,47.17
2023-05-22T12:11:01.773Z,46.93
2023-05-22T12:12:02.033Z,49.46
2023-05-22T12:13:01.773Z,50.19
2023-05-22T12:14:01.747Z,49.92
2023-05-22T12:15:01.718Z,50.61
2023-05-22T12:16:01.740Z,50.98
2023-05-22T12:17:01.797Z,52.97
2023-05-22T12:18:01.894Z,52.50
2023-05-22T12:19:01.744Z,49.08
2023-05-22T12:20:01.774Z,47.30
2023-05-22T12:21:01.720Z,46.20
2023-05-22T12:22:01.648Z,45.53
2023-05-22T12:23:01.645Z,48.18
2023-05-22T12:24:01.633Z,46.37
2023-05-22T12:25:01.642Z,44.29
2023-05-22T12:26:01.662Z,44.38
2023-05-22T12:27:01.582Z,44.17
2023-05-22T12:28:01.584Z,43.19
2023-05-22T12:29:01.591Z,43.68
2023-05-22T12:30:01.618Z,42.31
2023-05-22T12:31:01.576Z,42.82
2023-05-22T12:32:01.601Z,44.19
2023-05-22T12:33:01.533Z,47.11
2023-05-22T12:34:01.524Z,42.88
2023-05-22T12:35:01.550Z,45.29
2023-05-22T12:36:01.613Z,46.02
2023-05-22T12:37:01.523Z,46.75
2023-05-22T12:38:01.476Z,47.29
2023-05-22T12:39:01.535Z,48.20
2023-05-22T12:40:01.528Z,49.99
2023-05-22T12:41:01.478Z,47.46
2023-05-22T12:42:01.473Z,47.24
2023-05-22T12:43:01.459Z,47.19
2023-05-22T12:44:01.422Z,46.33
2023-05-22T12:45:01.507Z,45.57
2023-05-22T12:46:02.884Z,47.44
2023-05-22T12:47:01.593Z,49.16
2023-05-22T12:48:01.392Z,46.75
2023-05-22T12:49:01.525Z,46.06
2023-05-22T12:50:01.357Z,47.09
2023-05-22T12:51:01.348Z,45.47
2023-05-22T12:52:01.362Z,46.75
2023-05-22T12:53:01.334Z,47.66